createdAt,value
2023-02-15T00:01:46.861Z,13.33
2023-02-15T00:04:18.927Z,14.47
2023-02-15T00:06:45.608Z,12.63
2023-02-15T00:09:12.799Z,13.63
2023-02-15T00:11:51.020Z,13.57
2023-02-15T00:14:19.812Z,14.23
2023-02-15T00:16:47.129Z,13.30
2023-02-15T00:19:14.789Z,15.47
2023-02-15T00:21:41.993Z,14.50
2023-02-15T00:24:10.525Z,15.13
2023-02-15T00:26:39.135Z,14.87
2023-02-15T00:29:05.753Z,14.50
2023-02-15T00:31:34.037Z,14.43
2023-02-15T00:34:03.657Z,14.90
2023-02-15T00:36:30.133Z,14.43
2023-02-15T00:38:56.794Z,14.20
2023-02-15T00:41:23.274Z,14.70
2023-02-15T00:43:49.974Z,14.00
2023-02-15T00:46:16.478Z,13.93
2023-02-15T00:48:43.667Z,14.30
2023-02-15T00:51:10.371Z,14.93
2023-02-15T00:53:36.881Z,15.13
2023-02-15T00:56:03.861Z,15.10
2023-02-15T00:58:30.589Z,13.27
2023-02-15T01:01:04.674Z,14.37
2023-02-15T01:03:31.146Z,14.03
2023-02-15T01:05:57.762Z,13.07
2023-02-15T01:08:24.244Z,13.90
2023-02-15T01:10:50.848Z,14.73
2023-02-15T01:13:18.047Z,14.63
2023-02-15T01:15:45.168Z,13.80
2023-02-15T01:18:12.973Z,14.77
2023-02-15T01:20:42.011Z,14.13
2023-02-15T01:23:08.953Z,13.90
2023-02-15T01:25:37.029Z,14.30
2023-02-15T01:28:04.116Z,13.50
2023-02-15T01:30:30.875Z,14.37
2023-02-15T01:32:57.614Z,12.63
2023-02-15T01:35:24.817Z,13.80
2023-02-15T01:37:51.513Z,13.97
2023-02-15T01:40:18.920Z,13.03
2023-02-15T01:42:45.697Z,14.53
2023-02-15T01:45:32.784Z,13.37
2023-02-15T01:48:07.254Z,13.43
2023-02-15T01:50:45.600Z,14.00
2023-02-15T01:53:20.604Z,12.50
2023-02-15T01:56:00.229Z,13.93
2023-02-15T01:58:28.613Z,12.90
2023-02-15T02:00:56.104Z,13.10
2023-02-15T02:03:48.632Z,13.57
2023-02-15T02:06:15.386Z,13.10
2023-02-15T02:08:42.736Z,13.13
2023-02-15T02:11:13.346Z,12.80
2023-02-15T02:13:44.700Z,11.50
2023-02-15T02:16:18.685Z,13.93
2023-02-15T02:19:05.487Z,13.27
2023-02-15T02:21:41.118Z,12.50
2023-02-15T02:24:24.985Z,12.10
2023-02-15T02:27:20.542Z,11.93
2023-02-15T02:29:55.917Z,13.30
2023-02-15T02:32:53.976Z,13.50
2023-02-15T02:35:30.972Z,11.90
2023-02-15T02:38:05.704Z,12.63
2023-02-15T02:41:00.043Z,12.77
2023-02-15T02:43:48.605Z,12.43
2023-02-15T02:46:22.281Z,12.03
2023-02-15T02:48:50.170Z,13.03
2023-02-15T02:51:22.466Z,13.10
2023-02-15T02:53:55.118Z,12.87
2023-02-15T02:56:31.695Z,12.77
2023-02-15T02:59:10.504Z,13.03
2023-02-15T03:01:47.104Z,12.60
2023-02-15T03:04:18.775Z,12.77
2023-02-15T03:06:51.268Z,13.80
2023-02-15T03:09:42.617Z,12.70
2023-02-15T03:12:17.898Z,12.60
2023-02-15T03:14:47.188Z,12.93
2023-02-15T03:17:16.293Z,12.83
2023-02-15T03:19:45.041Z,12.30
2023-02-15T03:22:14.357Z,12.13
2023-02-15T03:25:05.820Z,12.20
2023-02-15T03:27:36.404Z,12.77
2023-02-15T03:30:04.055Z,12.67
2023-02-15T03:32:32.366Z,12.73
2023-02-15T03:34:59.097Z,12.30
2023-02-15T03:37:25.505Z,12.47
2023-02-15T03:40:23.100Z,12.03
2023-02-15T03:43:01.731Z,12.73
2023-02-15T03:45:31.401Z,11.70
2023-02-15T03:47:59.204Z,10.93
2023-02-15T03:50:47.903Z,11.77
2023-02-15T03:53:18.063Z,12.67
2023-02-15T03:55:48.471Z,12.93
2023-02-15T03:58:33.871Z,12.73
2023-02-15T04:01:23.427Z,12.20
2023-02-15T04:03:58.744Z,12.33
2023-02-15T04:06:25.328Z,13.23
2023-02-15T04:09:10.317Z,12.80
2023-02-15T04:11:36.792Z,12.70
2023-02-15T04:14:23.345Z,11.47
2023-02-15T04:16:50.768Z,12.67
2023-02-15T04:19:36.184Z,12.10
2023-02-15T04:22:21.553Z,12.03
2023-02-15T04:25:06.857Z,12.83
2023-02-15T04:27:34.205Z,11.70
2023-02-15T04:30:00.926Z,12.93
2023-02-15T04:32:28.160Z,12.40
2023-02-15T04:34:54.712Z,11.53
2023-02-15T04:37:21.562Z,11.80
2023-02-15T04:39:48.085Z,11.67
2023-02-15T04:42:14.590Z,12.40
2023-02-15T04:44:41.032Z,12.57
2023-02-15T04:47:07.472Z,13.03
2023-02-15T04:49:34.058Z,12.50
2023-02-15T04:52:00.532Z,12.17
2023-02-15T04:54:27.101Z,12.40
2023-02-15T04:56:53.551Z,12.10
2023-02-15T04:59:20.184Z,11.53
2023-02-15T05:01:47.010Z,12.60
2023-02-15T05:04:13.585Z,13.67
2023-02-15T05:06:40.094Z,13.23
2023-02-15T05:09:06.791Z,12.17
2023-02-15T05:11:33.280Z,13.63
2023-02-15T05:13:59.959Z,12.60
2023-02-15T05:16:28.836Z,13.10
2023-02-15T05:18:55.412Z,12.10
2023-02-15T05:21:22.176Z,13.63
2023-02-15T05:23:48.678Z,12.13
2023-02-15T05:26:39.439Z,12.93
2023-02-15T05:29:06.675Z,11.93
2023-02-15T05:31:34.183Z,12.83
2023-02-15T05:34:01.361Z,14.13
2023-02-15T05:36:28.030Z,14.37
2023-02-15T05:38:54.602Z,14.00
2023-02-15T05:41:21.158Z,14.03
2023-02-15T05:43:47.875Z,13.70
2023-02-15T05:46:14.727Z,14.07
2023-02-15T05:48:41.507Z,13.13
2023-02-15T05:51:09.361Z,13.87
2023-02-15T05:53:37.879Z,13.50
2023-02-15T05:56:05.510Z,13.90
2023-02-15T05:58:38.427Z,13.70
2023-02-15T06:01:15.831Z,13.33
2023-02-15T06:03:42.622Z,14.67
2023-02-15T06:06:09.454Z,13.77
2023-02-15T06:08:37.193Z,13.60
2023-02-15T06:11:04.465Z,13.87
2023-02-15T06:13:31.826Z,13.80
2023-02-15T06:15:58.390Z,12.63
2023-02-15T06:18:25.270Z,13.50
2023-02-15T06:20:51.773Z,13.67
2023-02-15T06:23:18.844Z,14.03
2023-02-15T06:25:46.846Z,13.67
2023-02-15T06:28:13.796Z,13.43
2023-02-15T06:30:40.770Z,13.10
2023-02-15T06:33:07.330Z,13.90
2023-02-15T06:35:33.840Z,11.97
2023-02-15T06:38:00.423Z,13.80
2023-02-15T06:40:27.028Z,13.13
2023-02-15T06:42:53.517Z,13.40
2023-02-15T06:45:20.123Z,13.07
2023-02-15T06:47:46.600Z,13.23
2023-02-15T06:50:13.422Z,14.00
2023-02-15T06:52:39.846Z,14.13
2023-02-15T06:55:07.327Z,14.20
2023-02-15T06:57:34.266Z,12.63
2023-02-15T07:00:01.054Z,12.50
2023-02-15T07:02:27.892Z,13.23
2023-02-15T07:04:54.592Z,12.77
2023-02-15T07:07:21.451Z,12.57
2023-02-15T07:09:47.979Z,12.97
2023-02-15T07:12:33.343Z,14.93
2023-02-15T07:15:00.096Z,13.50
2023-02-15T07:17:36.936Z,14.13
2023-02-15T07:20:12.576Z,14.33
2023-02-15T07:22:39.524Z,14.47
2023-02-15T07:25:08.310Z,14.83
2023-02-15T07:27:35.202Z,14.47
2023-02-15T07:30:02.342Z,15.30
2023-02-15T07:32:30.766Z,13.27
2023-02-15T07:34:57.871Z,14.47
2023-02-15T07:37:24.685Z,15.30
2023-02-15T07:39:51.348Z,14.77
2023-02-15T07:42:18.814Z,14.47
2023-02-15T07:44:45.356Z,14.40
2023-02-15T07:47:12.936Z,14.43
2023-02-15T07:49:39.522Z,15.20
2023-02-15T07:52:05.993Z,14.60
2023-02-15T07:54:32.631Z,15.30
2023-02-15T07:56:59.118Z,14.87
2023-02-15T07:59:25.724Z,15.70
2023-02-15T08:01:53.898Z,14.47
2023-02-15T08:04:20.590Z,14.83
2023-02-15T08:06:47.057Z,15.90
2023-02-15T08:09:13.694Z,16.27
2023-02-15T08:11:43.685Z,16.33
2023-02-15T08:14:15.452Z,15.87
2023-02-15T08:16:45.156Z,16.10
2023-02-15T08:19:13.027Z,15.93
2023-02-15T08:21:41.741Z,17.53
2023-02-15T08:24:10.349Z,15.97
2023-02-15T08:26:37.465Z,16.37
2023-02-15T08:29:04.638Z,16.20
2023-02-15T08:31:31.382Z,17.13
2023-02-15T08:33:58.515Z,17.60
2023-02-15T08:36:28.050Z,17.57
2023-02-15T08:38:54.541Z,18.63
2023-02-15T08:41:26.352Z,19.10
2023-02-15T08:43:55.182Z,19.00
2023-02-15T08:46:22.787Z,19.40
2023-02-15T08:48:50.313Z,18.97
2023-02-15T08:51:22.312Z,19.57
2023-02-15T08:53:51.437Z,18.47
2023-02-15T08:56:20.609Z,19.77
2023-02-15T08:58:47.338Z,23.13
2023-02-15T09:01:19.454Z,25.63
2023-02-15T09:03:47.807Z,24.97
2023-02-15T09:06:15.148Z,23.17
2023-02-15T09:08:42.003Z,22.23
2023-02-15T09:11:13.501Z,21.63
2023-02-15T09:13:40.544Z,19.97
2023-02-15T09:16:09.840Z,19.10
2023-02-15T09:18:38.342Z,19.07
2023-02-15T09:21:16.630Z,20.57
2023-02-15T09:23:44.422Z,20.37
2023-02-15T09:26:13.069Z,18.40
2023-02-15T09:28:39.797Z,18.97
2023-02-15T09:31:15.096Z,19.00
2023-02-15T09:33:42.922Z,19.97
2023-02-15T09:36:20.040Z,19.40
2023-02-15T09:38:47.599Z,18.90
2023-02-15T09:41:51.842Z,20.03
2023-02-15T09:44:55.843Z,20.20
2023-02-15T09:47:28.569Z,19.33
2023-02-15T09:50:04.539Z,19.90
2023-02-15T09:52:54.421Z,20.77
2023-02-15T09:55:39.372Z,19.13
2023-02-15T09:58:28.799Z,19.17
2023-02-15T10:01:00.186Z,20.53
2023-02-15T10:03:32.982Z,19.07
2023-02-15T10:06:12.090Z,19.90
2023-02-15T10:08:48.157Z,19.20
2023-02-15T10:11:33.313Z,19.90
2023-02-15T10:14:25.391Z,19.70
2023-02-15T10:17:21.412Z,17.97
2023-02-15T10:20:00.172Z,16.37
2023-02-15T10:22:33.465Z,17.33
2023-02-15T10:25:14.265Z,15.53
2023-02-15T10:27:51.098Z,15.67
2023-02-15T10:30:47.166Z,14.83
2023-02-15T10:33:36.396Z,12.43
2023-02-15T10:36:15.184Z,13.20
2023-02-15T10:38:53.461Z,13.07
2023-02-15T10:41:38.576Z,12.50
2023-02-15T10:44:08.021Z,12.43
2023-02-15T10:46:53.096Z,12.97
2023-02-15T10:49:34.929Z,13.67
2023-02-15T10:52:08.617Z,12.43
2023-02-15T10:54:59.418Z,13.17
2023-02-15T10:57:35.727Z,13.67
2023-02-15T11:00:28.201Z,13.27
2023-02-15T11:03:25.040Z,12.70
2023-02-15T11:06:08.488Z,11.37
2023-02-15T11:08:41.479Z,13.00
2023-02-15T11:11:11.511Z,12.27
2023-02-15T11:13:41.291Z,11.87
2023-02-15T11:16:17.622Z,12.67
2023-02-15T11:18:50.334Z,11.77
2023-02-15T11:21:33.671Z,12.20
2023-02-15T11:24:01.120Z,12.80
2023-02-15T11:26:30.051Z,11.27
2023-02-15T11:29:08.605Z,12.43
2023-02-15T11:31:51.747Z,11.33
2023-02-15T11:34:30.869Z,10.90
2023-02-15T11:37:01.432Z,11.30
2023-02-15T11:39:29.730Z,11.57
2023-02-15T11:41:58.307Z,11.40
2023-02-15T11:44:29.254Z,11.60
2023-02-15T11:46:55.739Z,10.13
2023-02-15T11:49:31.831Z,10.70
2023-02-15T11:51:59.078Z,9.40
2023-02-15T11:54:29.640Z,9.03
2023-02-15T11:57:19.085Z,9.10
2023-02-15T11:59:54.016Z,9.80
2023-02-15T12:02:23.171Z,10.50
2023-02-15T12:05:00.337Z,10.10
2023-02-15T12:07:34.601Z,8.93
2023-02-15T12:10:21.115Z,9.13
2023-02-15T12:12:47.892Z,9.57
2023-02-15T12:15:14.836Z,9.87
2023-02-15T12:17:53.313Z,8.87
2023-02-15T12:20:19.716Z,8.33
2023-02-15T12:23:04.346Z,8.47
2023-02-15T12:25:41.273Z,9.10
2023-02-15T12:28:25.920Z,9.70
2023-02-15T12:30:54.643Z,8.90
2023-02-15T12:33:46.768Z,9.90
2023-02-15T12:36:25.499Z,9.17
2023-02-15T12:39:13.880Z,8.67
2023-02-15T12:41:55.211Z,8.23
2023-02-15T12:44:27.716Z,8.10
2023-02-15T12:47:04.974Z,8.60
2023-02-15T12:49:36.386Z,8.73
2023-02-15T12:52:24.000Z,8.07
2023-02-15T12:54:51.535Z,8.47
2023-02-15T12:57:30.332Z,8.43
2023-02-15T13:00:07.566Z,7.50
2023-02-15T13:02:50.026Z,8.53
2023-02-15T13:05:27.186Z,8.00
2023-02-15T13:08:15.762Z,8.73
2023-02-15T13:10:43.546Z,8.47
2023-02-15T13:13:11.926Z,7.60
2023-02-15T13:15:41.029Z,8.37
2023-02-15T13:18:17.354Z,8.53
2023-02-15T13:20:46.253Z,8.13
2023-02-15T13:23:28.864Z,8.63
2023-02-15T13:25:57.469Z,8.30
2023-02-15T13:28:28.412Z,7.77
2023-02-15T13:30:55.596Z,8.37
2023-02-15T13:33:31.582Z,8.87
2023-02-15T13:36:11.673Z,8.27
2023-02-15T13:38:47.091Z,8.13
2023-02-15T13:41:17.725Z,8.40
2023-02-15T13:43:53.399Z,8.13
2023-02-15T13:46:29.307Z,8.13
2023-02-15T13:49:38.791Z,8.13
2023-02-15T13:52:23.300Z,8.17
2023-02-15T13:55:11.207Z,8.00
2023-02-15T13:57:37.742Z,9.17
